createdAt,value
2023-03-17T00:00:30.687Z,0.00
2023-03-17T00:01:30.534Z,0.00
2023-03-17T00:02:30.571Z,0.00
2023-03-17T00:03:30.556Z,0.00
2023-03-17T00:04:30.525Z,0.00
2023-03-17T00:05:30.513Z,0.00
2023-03-17T00:06:30.529Z,0.00
2023-03-17T00:07:30.500Z,0.00
2023-03-17T00:08:30.486Z,0.00
2023-03-17T00:09:30.521Z,0.00
2023-03-17T00:10:30.640Z,0.00
2023-03-17T00:11:30.472Z,0.00
2023-03-17T00:12:30.540Z,0.00
2023-03-17T00:13:30.473Z,0.00
2023-03-17T00:14:30.466Z,0.00
2023-03-17T00:15:30.439Z,0.00
2023-03-17T00:16:30.435Z,0.00
2023-03-17T00:17:30.417Z,0.00
2023-03-17T00:18:30.436Z,0.00
2023-03-17T00:19:30.454Z,0.00
2023-03-17T00:20:30.657Z,0.00
2023-03-17T00:21:30.421Z,0.00
2023-03-17T00:22:30.404Z,0.00
2023-03-17T00:23:30.380Z,0.00
2023-03-17T00:24:30.452Z,0.00
2023-03-17T00:25:30.376Z,0.00
2023-03-17T00:26:30.376Z,0.00
2023-03-17T00:27:30.395Z,0.00
2023-03-17T00:28:30.361Z,0.00
2023-03-17T00:29:30.363Z,0.00
2023-03-17T00:30:30.587Z,0.00
2023-03-17T00:31:30.410Z,0.00
2023-03-17T00:32:30.366Z,0.00
2023-03-17T00:33:30.325Z,0.00
2023-03-17T00:34:30.361Z,0.00
2023-03-17T00:35:30.388Z,0.00
2023-03-17T00:36:30.310Z,0.00
2023-03-17T00:37:30.286Z,0.00
2023-03-17T00:38:30.314Z,0.00
2023-03-17T00:39:30.287Z,0.00
2023-03-17T00:40:30.541Z,0.00
2023-03-17T00:41:30.285Z,0.00
2023-03-17T00:42:30.275Z,0.00
2023-03-17T00:43:30.756Z,0.00
2023-03-17T00:44:31.240Z,0.00
2023-03-17T00:45:30.230Z,0.00
2023-03-17T00:46:30.277Z,0.00
2023-03-17T00:47:30.232Z,0.00
2023-03-17T00:48:30.268Z,0.00
2023-03-17T00:49:30.194Z,0.00
2023-03-17T00:50:30.437Z,0.00
2023-03-17T00:51:30.227Z,0.00
2023-03-17T00:52:30.190Z,0.00
2023-03-17T00:53:30.202Z,0.00
2023-03-17T00:54:31.222Z,0.00
2023-03-17T00:55:30.209Z,0.00
2023-03-17T00:56:30.184Z,0.00
2023-03-17T00:57:30.188Z,0.00
2023-03-17T00:58:30.159Z,0.00
2023-03-17T00:59:30.161Z,0.00
2023-03-17T01:00:30.480Z,0.00
2023-03-17T01:01:30.149Z,0.00
2023-03-17T01:02:30.116Z,0.00
2023-03-17T01:03:30.138Z,0.00
2023-03-17T01:04:30.137Z,0.00
2023-03-17T01:05:30.148Z,0.00
2023-03-17T01:06:30.087Z,0.00
2023-03-17T01:07:30.117Z,0.00
2023-03-17T01:08:30.204Z,0.00
2023-03-17T01:09:30.088Z,0.00
2023-03-17T01:10:30.247Z,0.00
2023-03-17T01:11:30.103Z,0.00
2023-03-17T01:12:30.102Z,0.00
2023-03-17T01:13:30.055Z,0.00
2023-03-17T01:14:30.058Z,0.00
2023-03-17T01:15:30.056Z,0.00
2023-03-17T01:16:30.141Z,0.00
2023-03-17T01:17:30.054Z,0.00
2023-03-17T01:18:30.183Z,0.00
2023-03-17T01:19:30.037Z,0.00
2023-03-17T01:20:30.189Z,0.00
2023-03-17T01:21:30.023Z,0.00
2023-03-17T01:22:30.037Z,0.00
2023-03-17T01:23:30.050Z,0.00
2023-03-17T01:24:30.905Z,0.00
2023-03-17T01:25:29.985Z,0.00
2023-03-17T01:26:31.050Z,0.00
2023-03-17T01:27:30.007Z,0.00
2023-03-17T01:28:29.997Z,0.00
2023-03-17T01:29:29.981Z,0.00
2023-03-17T01:30:30.166Z,0.00
2023-03-17T01:31:30.041Z,0.00
2023-03-17T01:32:29.986Z,0.00
2023-03-17T01:33:29.953Z,0.00
2023-03-17T01:34:29.975Z,0.00
2023-03-17T01:35:29.994Z,0.00
2023-03-17T01:36:29.973Z,0.00
2023-03-17T01:37:29.904Z,0.00
2023-03-17T01:38:29.931Z,0.00
2023-03-17T01:39:29.923Z,0.00
2023-03-17T01:40:30.115Z,0.00
2023-03-17T01:41:29.908Z,0.00
2023-03-17T01:42:30.891Z,0.00
2023-03-17T01:43:29.893Z,0.00
2023-03-17T01:44:29.852Z,0.00
2023-03-17T01:45:29.880Z,0.00
2023-03-17T01:46:29.879Z,0.00
2023-03-17T01:47:29.832Z,0.00
2023-03-17T01:48:29.845Z,0.00
2023-03-17T01:49:29.944Z,0.00
2023-03-17T01:50:30.203Z,0.00
2023-03-17T01:51:29.835Z,0.00
2023-03-17T01:52:29.836Z,0.00
2023-03-17T01:53:29.840Z,0.00
2023-03-17T01:54:29.830Z,0.00
2023-03-17T01:55:29.815Z,0.00
2023-03-17T01:56:29.793Z,0.00
2023-03-17T01:57:29.806Z,0.00
2023-03-17T01:58:29.788Z,0.00
2023-03-17T01:59:29.819Z,0.00
2023-03-17T02:00:30.109Z,0.00
2023-03-17T02:01:29.764Z,0.00
2023-03-17T02:02:29.744Z,0.00
2023-03-17T02:03:30.328Z,0.00
2023-03-17T02:04:29.816Z,0.00
2023-03-17T02:05:29.868Z,0.00
2023-03-17T02:06:29.719Z,0.00
2023-03-17T02:07:29.770Z,0.00
2023-03-17T02:08:29.720Z,0.00
2023-03-17T02:09:29.727Z,0.00
2023-03-17T02:10:30.011Z,0.00
2023-03-17T02:11:29.671Z,0.00
2023-03-17T02:12:29.710Z,0.00
2023-03-17T02:13:30.276Z,0.00
2023-03-17T02:14:29.681Z,0.00
2023-03-17T02:15:29.660Z,0.00
2023-03-17T02:16:29.690Z,0.00
2023-03-17T02:17:29.639Z,0.00
2023-03-17T02:18:29.659Z,0.00
2023-03-17T02:19:29.638Z,0.00
2023-03-17T02:20:29.977Z,0.00
2023-03-17T02:21:29.632Z,0.00
2023-03-17T02:22:29.631Z,0.00
2023-03-17T02:23:29.687Z,0.00
2023-03-17T02:24:29.599Z,0.00
2023-03-17T02:25:29.607Z,0.00
2023-03-17T02:26:29.581Z,0.00
2023-03-17T02:27:29.595Z,0.00
2023-03-17T02:28:29.582Z,0.00
2023-03-17T02:29:29.697Z,0.00
2023-03-17T02:30:29.893Z,0.00
2023-03-17T02:31:29.550Z,0.00
2023-03-17T02:32:29.608Z,0.00
2023-03-17T02:33:29.599Z,0.00
2023-03-17T02:34:29.562Z,0.00
2023-03-17T02:35:29.529Z,0.00
2023-03-17T02:36:29.585Z,0.00
2023-03-17T02:37:29.533Z,0.00
2023-03-17T02:38:29.537Z,0.00
2023-03-17T02:39:29.529Z,0.00
2023-03-17T02:40:29.869Z,0.00
2023-03-17T02:41:29.501Z,0.00
2023-03-17T02:42:29.493Z,0.00
2023-03-17T02:43:29.485Z,0.00
2023-03-17T02:44:29.503Z,0.00
2023-03-17T02:45:29.518Z,0.00
2023-03-17T02:46:29.489Z,0.00
2023-03-17T02:47:29.494Z,0.00
2023-03-17T02:48:29.438Z,0.00
2023-03-17T02:49:29.451Z,0.00
2023-03-17T02:50:29.793Z,0.00
2023-03-17T02:51:29.451Z,0.00
2023-03-17T02:52:29.427Z,0.00
2023-03-17T02:53:29.461Z,0.00
2023-03-17T02:54:29.548Z,0.00
2023-03-17T02:55:29.395Z,0.00
2023-03-17T02:56:29.426Z,0.00
2023-03-17T02:57:29.434Z,0.00
2023-03-17T02:58:29.377Z,0.00
2023-03-17T02:59:29.383Z,0.00
2023-03-17T03:00:29.658Z,0.00
2023-03-17T03:01:29.520Z,0.00
2023-03-17T03:02:29.395Z,0.00
2023-03-17T03:03:29.349Z,0.00
2023-03-17T03:04:29.381Z,0.00
2023-03-17T03:05:29.353Z,0.00
2023-03-17T03:06:29.319Z,0.00
2023-03-17T03:07:29.324Z,0.00
2023-03-17T03:08:29.336Z,0.00
2023-03-17T03:09:29.309Z,0.00
2023-03-17T03:10:29.616Z,0.00
2023-03-17T03:11:29.351Z,0.00
2023-03-17T03:12:29.283Z,0.00
2023-03-17T03:13:29.316Z,0.00
2023-03-17T03:14:29.276Z,0.00
2023-03-17T03:15:29.343Z,0.00
2023-03-17T03:16:29.333Z,0.00
2023-03-17T03:17:29.261Z,0.00
2023-03-17T03:18:29.288Z,0.00
2023-03-17T03:19:29.230Z,0.00
2023-03-17T03:20:29.510Z,0.00
2023-03-17T03:21:29.243Z,0.00
2023-03-17T03:22:29.224Z,0.00
2023-03-17T03:23:29.207Z,0.00
2023-03-17T03:24:29.236Z,0.00
2023-03-17T03:25:29.226Z,0.00
2023-03-17T03:26:29.211Z,0.00
2023-03-17T03:27:29.175Z,0.00
2023-03-17T03:28:29.187Z,0.00
2023-03-17T03:29:29.214Z,0.00
2023-03-17T03:30:29.507Z,0.00
2023-03-17T03:31:29.242Z,0.00
2023-03-17T03:32:29.201Z,0.00
2023-03-17T03:33:29.207Z,0.00
2023-03-17T03:34:29.198Z,0.00
2023-03-17T03:35:29.139Z,0.00
2023-03-17T03:36:29.169Z,0.00
2023-03-17T03:37:29.136Z,0.00
2023-03-17T03:38:29.116Z,0.00
2023-03-17T03:39:29.095Z,0.00
2023-03-17T03:40:29.436Z,0.00
2023-03-17T03:41:29.113Z,0.00
2023-03-17T03:42:29.085Z,0.00
2023-03-17T03:43:29.917Z,0.00
2023-03-17T03:44:29.067Z,0.00
2023-03-17T03:45:29.064Z,0.00
2023-03-17T03:46:29.158Z,0.00
2023-03-17T03:47:29.103Z,0.00
2023-03-17T03:48:29.087Z,0.00
2023-03-17T03:49:29.033Z,0.00
2023-03-17T03:50:29.421Z,0.00
2023-03-17T03:51:29.018Z,0.00
2023-03-17T03:52:29.052Z,0.00
2023-03-17T03:53:29.034Z,0.00
2023-03-17T03:54:29.013Z,0.00
2023-03-17T03:55:29.002Z,0.00
2023-03-17T03:56:29.000Z,0.00
2023-03-17T03:57:28.999Z,0.00
2023-03-17T03:58:29.017Z,0.00
2023-03-17T03:59:29.035Z,0.00
2023-03-17T04:00:29.240Z,0.00
2023-03-17T04:01:28.966Z,0.00
2023-03-17T04:02:28.955Z,0.00
2023-03-17T04:03:28.969Z,0.00
2023-03-17T04:04:28.962Z,0.00
2023-03-17T04:05:28.946Z,0.00
2023-03-17T04:06:28.956Z,0.00
2023-03-17T04:07:28.923Z,0.00
2023-03-17T04:08:28.962Z,0.00
2023-03-17T04:09:28.939Z,0.00
2023-03-17T04:10:29.321Z,0.00
2023-03-17T04:11:28.942Z,0.00
2023-03-17T04:12:28.889Z,0.00
2023-03-17T04:13:28.885Z,0.00
2023-03-17T04:14:28.892Z,0.00
2023-03-17T04:15:28.895Z,0.00
2023-03-17T04:16:28.907Z,0.00
2023-03-17T04:17:28.873Z,0.00
2023-03-17T04:18:28.857Z,0.00
2023-03-17T04:19:28.854Z,0.00
2023-03-17T04:20:29.238Z,0.00
2023-03-17T04:21:28.842Z,0.00
2023-03-17T04:22:28.830Z,0.00
2023-03-17T04:23:28.980Z,0.00
2023-03-17T04:24:28.824Z,0.00
2023-03-17T04:25:28.822Z,0.00
2023-03-17T04:26:28.817Z,0.00
2023-03-17T04:27:28.806Z,0.00
2023-03-17T04:28:28.775Z,0.00
2023-03-17T04:29:28.791Z,0.00
2023-03-17T04:30:29.254Z,0.00
2023-03-17T04:31:28.835Z,0.00
2023-03-17T04:32:28.796Z,0.00
2023-03-17T04:33:28.778Z,0.00
2023-03-17T04:34:28.759Z,0.00
2023-03-17T04:35:28.755Z,0.00
2023-03-17T04:36:28.745Z,0.00
2023-03-17T04:37:28.755Z,0.00
2023-03-17T04:38:28.724Z,0.00
2023-03-17T04:39:28.758Z,0.00
2023-03-17T04:40:28.906Z,0.00
2023-03-17T04:41:28.721Z,0.00
2023-03-17T04:42:28.867Z,0.00
2023-03-17T04:43:28.781Z,0.00
2023-03-17T04:44:28.676Z,0.00
2023-03-17T04:45:28.747Z,0.00
2023-03-17T04:46:28.689Z,0.00
2023-03-17T04:47:28.727Z,0.00
2023-03-17T04:48:28.712Z,0.00
2023-03-17T04:49:28.659Z,0.00
2023-03-17T04:50:28.788Z,0.00
2023-03-17T04:51:28.662Z,0.00
2023-03-17T04:52:28.645Z,0.00
2023-03-17T04:53:28.736Z,0.00
2023-03-17T04:54:28.651Z,0.00
2023-03-17T04:55:28.641Z,0.00
2023-03-17T04:56:31.201Z,0.00
2023-03-17T04:57:28.664Z,0.00
2023-03-17T04:58:31.026Z,0.00
2023-03-17T04:59:29.732Z,0.00
2023-03-17T05:00:28.756Z,0.00
2023-03-17T05:01:28.660Z,0.00
2023-03-17T05:02:28.617Z,0.00
2023-03-17T05:03:28.952Z,0.00
2023-03-17T05:04:31.999Z,0.00
2023-03-17T05:05:29.590Z,0.00
2023-03-17T05:06:28.652Z,0.00
2023-03-17T05:07:28.580Z,0.00
2023-03-17T05:08:28.616Z,0.00
2023-03-17T05:09:28.605Z,0.00
2023-03-17T05:10:28.956Z,0.00
2023-03-17T05:11:28.555Z,0.00
2023-03-17T05:12:28.656Z,0.00
2023-03-17T05:13:28.533Z,0.00
2023-03-17T05:14:28.528Z,0.00
2023-03-17T05:15:28.585Z,0.00
2023-03-17T05:16:28.543Z,0.00
2023-03-17T05:17:28.509Z,0.00
2023-03-17T05:18:28.498Z,0.00
2023-03-17T05:19:28.524Z,0.00
2023-03-17T05:20:29.018Z,0.00
2023-03-17T05:21:28.509Z,0.00
2023-03-17T05:22:28.514Z,0.00
2023-03-17T05:23:28.504Z,0.00
2023-03-17T05:24:28.508Z,0.00
2023-03-17T05:25:28.492Z,0.00
2023-03-17T05:26:28.470Z,0.00
2023-03-17T05:27:28.469Z,0.00
2023-03-17T05:28:28.501Z,0.00
2023-03-17T05:29:28.477Z,5.62
2023-03-17T05:30:28.547Z,5.62
2023-03-17T05:31:28.488Z,5.62
2023-03-17T05:32:29.470Z,5.62
2023-03-17T05:33:28.435Z,5.62
2023-03-17T05:34:28.438Z,5.62
2023-03-17T05:35:28.425Z,5.62
2023-03-17T05:36:28.424Z,11.25
2023-03-17T05:37:28.429Z,11.25
2023-03-17T05:38:28.407Z,11.25
2023-03-17T05:39:28.475Z,11.25
2023-03-17T05:40:29.663Z,11.25
2023-03-17T05:41:28.405Z,16.88
2023-03-17T05:42:28.405Z,16.88
2023-03-17T05:43:28.448Z,16.88
2023-03-17T05:44:28.458Z,16.88
2023-03-17T05:45:28.397Z,22.50
2023-03-17T05:46:28.433Z,22.50
2023-03-17T05:47:28.366Z,28.12
2023-03-17T05:48:28.367Z,28.12
2023-03-17T05:49:28.457Z,28.12
2023-03-17T05:50:28.434Z,33.75
2023-03-17T05:51:28.317Z,33.75
2023-03-17T05:52:28.328Z,33.75
2023-03-17T05:53:28.346Z,39.38
2023-03-17T05:54:28.307Z,39.38
2023-03-17T05:55:29.279Z,45.00
2023-03-17T05:56:28.323Z,45.00
2023-03-17T05:57:28.297Z,50.62
2023-03-17T05:58:28.287Z,50.62
2023-03-17T05:59:28.327Z,56.25
2023-03-17T06:00:29.297Z,61.88
2023-03-17T06:01:28.429Z,61.88
2023-03-17T06:02:28.294Z,67.50
2023-03-17T06:03:28.299Z,67.50
2023-03-17T06:04:28.259Z,73.12
2023-03-17T06:05:28.280Z,73.12
2023-03-17T06:06:28.264Z,73.12
2023-03-17T06:07:31.186Z,78.75
2023-03-17T06:08:30.225Z,78.75
2023-03-17T06:09:28.227Z,84.38
2023-03-17T06:10:28.232Z,84.38
2023-03-17T06:11:28.229Z,84.38
2023-03-17T06:12:28.189Z,90.00
2023-03-17T06:13:28.193Z,90.00
2023-03-17T06:14:28.200Z,90.00
2023-03-17T06:15:28.346Z,95.62
2023-03-17T06:16:28.174Z,101.25
2023-03-17T06:17:28.158Z,101.25
2023-03-17T06:18:28.189Z,106.88
2023-03-17T06:19:28.188Z,106.88
2023-03-17T06:20:28.198Z,112.50
2023-03-17T06:21:28.140Z,112.50
2023-03-17T06:22:28.150Z,112.50
2023-03-17T06:23:28.141Z,118.12
2023-03-17T06:24:28.120Z,123.75
2023-03-17T06:25:28.342Z,129.38
2023-03-17T06:26:28.132Z,135.00
2023-03-17T06:27:28.136Z,135.00
2023-03-17T06:28:28.193Z,140.62
2023-03-17T06:29:28.166Z,146.25
2023-03-17T06:30:28.113Z,146.25
2023-03-17T06:31:28.199Z,151.88
2023-03-17T06:32:28.298Z,157.50
2023-03-17T06:33:28.098Z,157.50
2023-03-17T06:34:28.107Z,163.12
2023-03-17T06:35:28.162Z,163.12
2023-03-17T06:36:28.065Z,163.12
2023-03-17T06:37:28.158Z,163.12
2023-03-17T06:38:28.048Z,163.12
2023-03-17T06:39:28.092Z,163.12
2023-03-17T06:40:28.135Z,168.75
2023-03-17T06:41:28.092Z,163.12
2023-03-17T06:42:28.100Z,163.12
2023-03-17T06:43:28.124Z,157.50
2023-03-17T06:44:28.011Z,168.75
2023-03-17T06:45:27.995Z,174.38
2023-03-17T06:46:28.097Z,168.75
2023-03-17T06:47:27.975Z,168.75
2023-03-17T06:48:27.974Z,168.75
2023-03-17T06:49:27.962Z,168.75
2023-03-17T06:50:27.987Z,168.75
2023-03-17T06:51:27.973Z,174.38
2023-03-17T06:52:27.956Z,174.38
2023-03-17T06:53:27.981Z,174.38
2023-03-17T06:54:27.935Z,174.38
2023-03-17T06:55:27.951Z,180.00
2023-03-17T06:56:30.466Z,180.00
2023-03-17T06:57:28.920Z,185.62
2023-03-17T06:58:27.990Z,191.25
2023-03-17T06:59:28.824Z,191.25
2023-03-17T07:00:27.951Z,191.25
2023-03-17T07:01:27.973Z,191.25
2023-03-17T07:02:27.903Z,191.25
2023-03-17T07:03:28.760Z,191.25
2023-03-17T07:04:27.911Z,191.25
2023-03-17T07:05:27.952Z,196.88
2023-03-17T07:06:27.904Z,196.88
2023-03-17T07:07:27.866Z,196.88
2023-03-17T07:08:27.851Z,196.88
2023-03-17T07:09:27.859Z,202.50
2023-03-17T07:10:27.847Z,202.50
2023-03-17T07:11:27.862Z,208.12
2023-03-17T07:12:27.815Z,219.38
2023-03-17T07:13:27.831Z,219.38
2023-03-17T07:14:27.831Z,225.00
2023-03-17T07:15:27.801Z,236.25
2023-03-17T07:16:27.839Z,241.88
2023-03-17T07:17:27.804Z,241.88
2023-03-17T07:18:27.798Z,253.12
2023-03-17T07:19:27.791Z,258.75
2023-03-17T07:20:27.793Z,264.38
2023-03-17T07:21:27.765Z,270.00
2023-03-17T07:22:27.748Z,264.38
2023-03-17T07:23:27.725Z,270.00
2023-03-17T07:24:27.732Z,270.00
2023-03-17T07:25:27.752Z,275.62
2023-03-17T07:26:27.764Z,281.25
2023-03-17T07:27:27.711Z,275.62
2023-03-17T07:28:28.351Z,275.62
2023-03-17T07:29:27.781Z,275.62
2023-03-17T07:30:27.710Z,275.62
2023-03-17T07:31:27.767Z,281.25
2023-03-17T07:32:27.717Z,292.50
2023-03-17T07:33:27.706Z,292.50
2023-03-17T07:34:27.691Z,303.75
2023-03-17T07:35:27.704Z,298.12
2023-03-17T07:36:27.681Z,303.75
2023-03-17T07:37:27.671Z,303.75
2023-03-17T07:38:27.710Z,309.38
2023-03-17T07:39:28.249Z,309.38
2023-03-17T07:40:27.641Z,315.00
2023-03-17T07:41:27.612Z,326.25
2023-03-17T07:42:27.644Z,416.25
2023-03-17T07:43:27.608Z,776.25
2023-03-17T07:44:27.639Z,1125.00
2023-03-17T07:45:27.694Z,1226.25
2023-03-17T07:46:27.702Z,1327.50
2023-03-17T07:47:27.578Z,1338.75
2023-03-17T07:48:27.888Z,1490.62
2023-03-17T07:49:40.316Z,1513.12
2023-03-17T07:50:29.745Z,1479.38
2023-03-17T07:51:27.631Z,1378.12
2023-03-17T07:52:27.585Z,1473.75
2023-03-17T07:53:27.584Z,1305.00
2023-03-17T07:54:27.544Z,1299.38
2023-03-17T07:55:27.530Z,1344.38
2023-03-17T07:56:27.520Z,1378.12
2023-03-17T07:57:27.592Z,1378.12
2023-03-17T07:58:27.547Z,1513.12
2023-03-17T07:59:27.534Z,1676.25
2023-03-17T08:00:27.573Z,1575.00
2023-03-17T08:01:27.526Z,1496.25
2023-03-17T08:02:27.602Z,1563.75
2023-03-17T08:03:27.607Z,1563.75
2023-03-17T08:04:27.509Z,1462.50
2023-03-17T08:05:27.517Z,1558.12
2023-03-17T08:06:27.464Z,1636.88
2023-03-17T08:07:27.473Z,1575.00
2023-03-17T08:08:27.512Z,1580.62
2023-03-17T08:09:27.452Z,1597.50
2023-03-17T08:10:27.450Z,1434.38
2023-03-17T08:11:29.359Z,1496.25
2023-03-17T08:12:28.412Z,1603.12
2023-03-17T08:13:27.453Z,1620.00
2023-03-17T08:14:27.437Z,1575.00
2023-03-17T08:15:27.457Z,1738.12
2023-03-17T08:16:27.414Z,1845.00
2023-03-17T08:17:27.427Z,1974.38
2023-03-17T08:18:27.383Z,1861.88
2023-03-17T08:19:27.426Z,1951.88
2023-03-17T08:20:27.368Z,2081.25
2023-03-17T08:21:27.404Z,2115.00
2023-03-17T08:22:27.347Z,1980.00
2023-03-17T08:23:27.396Z,1957.50
2023-03-17T08:24:27.341Z,2019.38
2023-03-17T08:25:27.359Z,2244.38
2023-03-17T08:26:27.403Z,2233.12
2023-03-17T08:27:27.317Z,2216.25
2023-03-17T08:28:27.328Z,1929.38
2023-03-17T08:29:27.342Z,1800.00
2023-03-17T08:30:27.435Z,2098.12
2023-03-17T08:31:27.346Z,2120.62
2023-03-17T08:32:27.406Z,2019.38
2023-03-17T08:33:27.317Z,2008.12
2023-03-17T08:34:27.297Z,1850.62
2023-03-17T08:35:27.358Z,1828.12
2023-03-17T08:36:27.256Z,1940.62
2023-03-17T08:37:27.289Z,1839.38
2023-03-17T08:38:27.251Z,1665.00
2023-03-17T08:39:27.236Z,1935.00
2023-03-17T08:40:27.248Z,1940.62
2023-03-17T08:41:27.272Z,1906.88
2023-03-17T08:42:27.256Z,1575.00
2023-03-17T08:43:27.253Z,1569.38
2023-03-17T08:44:27.237Z,1760.62
2023-03-17T08:45:27.239Z,2081.25
2023-03-17T08:46:27.283Z,1980.00
2023-03-17T08:47:27.199Z,1923.75
2023-03-17T08:48:27.209Z,1912.50
2023-03-17T08:49:27.199Z,2182.50
2023-03-17T08:50:27.209Z,1288.12
2023-03-17T08:51:27.201Z,1445.62
2023-03-17T08:52:27.145Z,1170.00
2023-03-17T08:53:27.789Z,1282.50
2023-03-17T08:54:27.151Z,1158.75
2023-03-17T08:55:27.214Z,1260.00
2023-03-17T08:56:27.158Z,1513.12
2023-03-17T08:57:27.163Z,1490.62
2023-03-17T08:58:27.120Z,1468.12
2023-03-17T08:59:27.106Z,1580.62
2023-03-17T09:00:27.153Z,1726.88
2023-03-17T09:01:27.213Z,1715.62
2023-03-17T09:02:27.117Z,1721.25
2023-03-17T09:03:27.137Z,1721.25
2023-03-17T09:04:27.108Z,1721.25
2023-03-17T09:05:27.090Z,1676.25
2023-03-17T09:06:27.111Z,1698.75
2023-03-17T09:07:27.095Z,1580.62
2023-03-17T09:08:27.101Z,1738.12
2023-03-17T09:09:27.067Z,1743.75
2023-03-17T09:10:27.046Z,1845.00
2023-03-17T09:11:27.072Z,1856.25
2023-03-17T09:12:27.063Z,1845.00
2023-03-17T09:13:27.100Z,1991.25
2023-03-17T09:14:27.054Z,2148.75
2023-03-17T09:15:27.042Z,2193.75
2023-03-17T09:16:27.189Z,2160.00
2023-03-17T09:17:27.056Z,2160.00
2023-03-17T09:18:27.012Z,2019.38
2023-03-17T09:19:27.022Z,2306.25
2023-03-17T09:20:27.050Z,2598.75
2023-03-17T09:21:27.001Z,2559.38
2023-03-17T09:22:27.780Z,2193.75
2023-03-17T09:23:27.001Z,2143.12
2023-03-17T09:24:26.986Z,2396.25
2023-03-17T09:25:26.970Z,2525.62
2023-03-17T09:26:26.949Z,2227.50
2023-03-17T09:27:26.975Z,2514.38
2023-03-17T09:28:26.925Z,2131.88
2023-03-17T09:29:26.946Z,2306.25
2023-03-17T09:30:26.990Z,2345.62
2023-03-17T09:31:28.058Z,2486.25
2023-03-17T09:32:27.994Z,2761.88
2023-03-17T09:33:26.934Z,2553.75
2023-03-17T09:34:26.881Z,2340.00
2023-03-17T09:35:26.868Z,2593.12
2023-03-17T09:36:26.915Z,2542.50
2023-03-17T09:37:26.881Z,2160.00
2023-03-17T09:38:26.859Z,2120.62
2023-03-17T09:39:26.869Z,2334.38
2023-03-17T09:40:28.518Z,2008.12
2023-03-17T09:41:27.856Z,1760.62
2023-03-17T09:42:26.883Z,1850.62
2023-03-17T09:43:26.867Z,1957.50
2023-03-17T09:44:26.862Z,2441.25
2023-03-17T09:45:26.832Z,2317.50
2023-03-17T09:46:26.822Z,2064.38
2023-03-17T09:47:26.791Z,1861.88
2023-03-17T09:48:26.788Z,1805.62
2023-03-17T09:49:26.808Z,1873.12
2023-03-17T09:50:26.775Z,1884.38
2023-03-17T09:51:26.778Z,2070.00
2023-03-17T09:52:26.817Z,2205.00
2023-03-17T09:53:26.814Z,1800.00
2023-03-17T09:54:26.760Z,2373.75
2023-03-17T09:55:26.757Z,2463.75
2023-03-17T09:56:26.741Z,2458.12
2023-03-17T09:57:26.738Z,2058.75
2023-03-17T09:58:26.725Z,2598.75
2023-03-17T09:59:26.784Z,2244.38
2023-03-17T10:00:26.772Z,1738.12
2023-03-17T10:01:26.798Z,2250.00
2023-03-17T10:02:26.707Z,2115.00
2023-03-17T10:03:26.781Z,1833.75
2023-03-17T10:04:26.702Z,2070.00
2023-03-17T10:05:26.748Z,2047.50
2023-03-17T10:06:26.662Z,2272.50
2023-03-17T10:07:26.655Z,2008.12
2023-03-17T10:08:31.757Z,2126.25
2023-03-17T10:09:28.656Z,2109.38
2023-03-17T10:10:26.642Z,1867.50
2023-03-17T10:11:26.648Z,1783.12
2023-03-17T10:12:26.606Z,1535.62
2023-03-17T10:13:26.622Z,1608.75
2023-03-17T10:14:26.653Z,1704.38
2023-03-17T10:15:26.652Z,1822.50
2023-03-17T10:16:26.669Z,1783.12
2023-03-17T10:17:26.587Z,1800.00
2023-03-17T10:18:26.577Z,1788.75
2023-03-17T10:19:26.588Z,1710.00
2023-03-17T10:20:26.600Z,1935.00
2023-03-17T10:21:26.605Z,2053.12
2023-03-17T10:22:26.593Z,1811.25
2023-03-17T10:23:26.556Z,1687.50
2023-03-17T10:24:26.526Z,1738.12
2023-03-17T10:25:26.541Z,1496.25
2023-03-17T10:26:26.558Z,1372.50
2023-03-17T10:27:27.364Z,1350.00
2023-03-17T10:28:26.520Z,1321.88
2023-03-17T10:29:26.509Z,1293.75
2023-03-17T10:30:26.551Z,1288.12
2023-03-17T10:31:26.517Z,1383.75
2023-03-17T10:32:26.551Z,1440.00
2023-03-17T10:33:26.531Z,1501.88
2023-03-17T10:34:26.465Z,1597.50
2023-03-17T10:35:26.851Z,1659.38
2023-03-17T10:36:26.458Z,1800.00
2023-03-17T10:37:26.450Z,1665.00
2023-03-17T10:38:26.464Z,1760.62
2023-03-17T10:39:26.456Z,1895.62
2023-03-17T10:40:26.448Z,1687.50
2023-03-17T10:41:26.426Z,1698.75
2023-03-17T10:42:26.463Z,1603.12
2023-03-17T10:43:26.450Z,1738.12
2023-03-17T10:44:26.441Z,1670.62
2023-03-17T10:45:26.380Z,1867.50
2023-03-17T10:46:26.465Z,1963.12
2023-03-17T10:47:26.389Z,1895.62
2023-03-17T10:48:26.386Z,1771.88
2023-03-17T10:49:26.354Z,1923.75
2023-03-17T10:50:26.368Z,1951.88
2023-03-17T10:51:27.308Z,1501.88
2023-03-17T10:52:26.346Z,1743.75
2023-03-17T10:53:26.342Z,1625.62
2023-03-17T10:54:26.313Z,1591.88
2023-03-17T10:55:26.328Z,1552.50
2023-03-17T10:56:26.309Z,1265.62
2023-03-17T10:57:26.307Z,1321.88
2023-03-17T10:58:26.289Z,1383.75
2023-03-17T10:59:26.335Z,1333.12
2023-03-17T11:00:26.285Z,1310.62
2023-03-17T11:01:26.369Z,1552.50
2023-03-17T11:02:26.291Z,1440.00
2023-03-17T11:03:26.301Z,1361.25
2023-03-17T11:04:26.264Z,1338.75
2023-03-17T11:05:26.291Z,1355.62
2023-03-17T11:06:26.279Z,1344.38
2023-03-17T11:07:26.253Z,1226.25
2023-03-17T11:08:26.241Z,1237.50
2023-03-17T11:09:26.225Z,1243.12
2023-03-17T11:10:26.213Z,1243.12
2023-03-17T11:11:26.253Z,1243.12
2023-03-17T11:12:26.227Z,1153.12
2023-03-17T11:13:26.205Z,1091.25
2023-03-17T11:14:26.249Z,1158.75
2023-03-17T11:15:26.183Z,1096.88
2023-03-17T11:16:26.210Z,1164.38
2023-03-17T11:17:26.180Z,1158.75
2023-03-17T11:18:26.149Z,1231.88
2023-03-17T11:19:26.153Z,1231.88
2023-03-17T11:20:26.152Z,1215.00
2023-03-17T11:21:26.152Z,1209.38
2023-03-17T11:22:26.175Z,1175.62
2023-03-17T11:23:26.146Z,1153.12
2023-03-17T11:24:26.129Z,995.62
2023-03-17T11:25:26.137Z,1001.25
2023-03-17T11:26:26.176Z,1029.38
2023-03-17T11:27:26.163Z,950.62
2023-03-17T11:28:26.119Z,950.62
2023-03-17T11:29:26.185Z,1040.62
2023-03-17T11:30:26.129Z,1057.50
2023-03-17T11:31:26.121Z,1125.00
2023-03-17T11:32:26.232Z,1119.38
2023-03-17T11:33:26.139Z,1153.12
2023-03-17T11:34:26.075Z,1125.00
2023-03-17T11:35:26.052Z,1125.00
2023-03-17T11:36:26.054Z,1096.88
2023-03-17T11:37:26.039Z,1063.12
2023-03-17T11:38:26.194Z,973.12
2023-03-17T11:39:26.058Z,1012.50
2023-03-17T11:40:26.111Z,1012.50
2023-03-17T11:41:26.107Z,984.38
2023-03-17T11:42:26.011Z,973.12
2023-03-17T11:43:26.093Z,922.50
2023-03-17T11:44:26.019Z,922.50
2023-03-17T11:45:25.999Z,894.38
2023-03-17T11:46:26.081Z,961.88
2023-03-17T11:47:26.016Z,933.75
2023-03-17T11:48:25.977Z,900.00
2023-03-17T11:49:25.975Z,877.50
2023-03-17T11:50:25.962Z,911.25
2023-03-17T11:51:25.973Z,911.25
2023-03-17T11:52:25.973Z,838.12
2023-03-17T11:53:26.057Z,855.00
2023-03-17T11:54:25.946Z,905.62
2023-03-17T11:55:25.967Z,905.62
2023-03-17T11:56:26.271Z,939.38
2023-03-17T11:57:25.930Z,984.38
2023-03-17T11:58:25.924Z,1012.50
2023-03-17T11:59:25.977Z,973.12
2023-03-17T12:00:25.891Z,1046.25
2023-03-17T12:01:25.884Z,1046.25
2023-03-17T12:02:25.894Z,1029.38
2023-03-17T12:03:25.925Z,950.62
2023-03-17T12:04:25.985Z,961.88
2023-03-17T12:05:25.868Z,984.38
2023-03-17T12:06:25.868Z,928.12
2023-03-17T12:07:25.867Z,905.62
2023-03-17T12:08:25.847Z,821.25
2023-03-17T12:09:25.872Z,855.00
2023-03-17T12:10:25.866Z,832.50
2023-03-17T12:11:25.841Z,810.00
2023-03-17T12:12:25.866Z,787.50
2023-03-17T12:13:25.828Z,815.62
2023-03-17T12:14:25.811Z,843.75
2023-03-17T12:15:25.818Z,798.75
2023-03-17T12:16:25.822Z,781.88
2023-03-17T12:17:27.318Z,759.38
2023-03-17T12:18:26.814Z,753.75
2023-03-17T12:19:25.785Z,736.88
2023-03-17T12:20:25.818Z,697.50
2023-03-17T12:21:25.784Z,680.62
2023-03-17T12:22:25.810Z,686.25
2023-03-17T12:23:25.810Z,675.00
2023-03-17T12:24:25.780Z,675.00
2023-03-17T12:25:25.788Z,669.38
2023-03-17T12:26:25.764Z,675.00
2023-03-17T12:27:25.776Z,658.12
2023-03-17T12:28:25.776Z,658.12
2023-03-17T12:29:25.751Z,646.88
2023-03-17T12:30:25.740Z,635.62
2023-03-17T12:31:25.812Z,618.75
2023-03-17T12:32:25.782Z,596.25
2023-03-17T12:33:25.736Z,573.75
2023-03-17T12:34:25.733Z,568.12
2023-03-17T12:35:25.702Z,562.50
2023-03-17T12:36:25.681Z,556.88
2023-03-17T12:37:25.689Z,556.88
2023-03-17T12:38:25.689Z,556.88
2023-03-17T12:39:25.703Z,556.88
2023-03-17T12:40:26.270Z,556.88
2023-03-17T12:41:26.696Z,545.62
2023-03-17T12:42:25.687Z,511.88
2023-03-17T12:43:25.671Z,495.00